Time;durP1;ratioP1;P1;durP2;ratioP2;P2;SDS_P1;SDS_P2;PMS_P1;PMS_P2;Temp;Humidity;BMP_temperature;BMP_pressure;BME280_temperature;BME280_humidity;BME280_pressure;Samples;Min_cycle;Max_cycle;Signal;HPM_P1;HPM_P2
2024/03/20 00:01:36;;;;;;;;;21.00;16.00;;;;;;;;5079895;27;45212;-64
2024/03/20 00:04:04;;;;;;;;;20.33;17.33;;;;;;;;5085099;27;46032;-64
2024/03/20 00:06:32;;;;;;;;;21.67;19.33;;;;;;;;5090241;27;45447;-64
2024/03/20 00:08:57;;;;;;;;;24.33;21.33;;;;;;;;5078735;27;45476;-64
2024/03/20 00:11:23;;;;;;;;;22.67;18.00;;;;;;;;5079805;27;45437;-64
2024/03/20 00:13:48;;;;;;;;;20.00;17.33;;;;;;;;5083380;27;45545;-63
2024/03/20 00:16:13;;;;;;;;;27.33;21.00;;;;;;;;5078809;27;45492;-64
2024/03/20 00:18:39;;;;;;;;;21.00;19.33;;;;;;;;5082266;27;45703;-63
2024/03/20 00:21:04;;;;;;;;;24.33;22.33;;;;;;;;5086397;27;45473;-64
2024/03/20 00:23:29;;;;;;;;;24.00;20.33;;;;;;;;5094360;27;45429;-64
2024/03/20 00:25:54;;;;;;;;;22.67;20.33;;;;;;;;5093133;27;45408;-64
2024/03/20 00:28:20;;;;;;;;;20.67;14.33;;;;;;;;5079601;27;45345;-64
2024/03/20 00:30:45;;;;;;;;;22.67;22.00;;;;;;;;5089955;27;45519;-64
2024/03/20 00:33:10;;;;;;;;;21.67;18.33;;;;;;;;5089188;27;45475;-64
2024/03/20 00:35:37;;;;;;;;;23.33;19.67;;;;;;;;5092653;27;45407;-64
2024/03/20 00:38:03;;;;;;;;;23.00;22.00;;;;;;;;5085469;27;45278;-64
2024/03/20 00:40:28;;;;;;;;;22.00;21.00;;;;;;;;5085658;27;45428;-63
2024/03/20 00:42:53;;;;;;;;;29.00;20.33;;;;;;;;5081851;27;46528;-64
2024/03/20 00:45:18;;;;;;;;;23.33;20.00;;;;;;;;5089844;27;45350;-64
2024/03/20 00:47:43;;;;;;;;;22.67;21.67;;;;;;;;5074622;27;45358;-64
2024/03/20 00:50:09;;;;;;;;;22.67;22.33;;;;;;;;5083692;27;45272;-64
2024/03/20 00:52:34;;;;;;;;;29.67;26.67;;;;;;;;5084718;27;47188;-63
2024/03/20 00:54:59;;;;;;;;;25.00;24.00;;;;;;;;5079361;27;45279;-63
2024/03/20 00:57:24;;;;;;;;;26.67;25.33;;;;;;;;5078214;27;45307;-64
2024/03/20 00:59:50;;;;;;;;;32.00;26.00;;;;;;;;5082151;27;45359;-64
2024/03/20 01:02:15;;;;;;;;;23.00;22.67;;;;;;;;5088061;27;45445;-64
2024/03/20 01:04:40;;;;;;;;;27.67;22.67;;;;;;;;5078356;27;45850;-64
2024/03/20 01:07:05;;;;;;;;;29.67;24.00;;;;;;;;5081128;27;45394;-64
2024/03/20 01:09:30;;;;;;;;;33.00;28.67;;;;;;;;5085517;27;45129;-63
2024/03/20 01:11:56;;;;;;;;;23.67;23.67;;;;;;;;5088957;27;47571;-64
2024/03/20 01:14:22;;;;;;;;;25.00;23.67;;;;;;;;5082040;27;45274;-64
2024/03/20 01:16:49;;;;;;;;;24.33;23.67;;;;;;;;5066776;27;45345;-64
2024/03/20 01:19:14;;;;;;;;;25.67;22.00;;;;;;;;5082639;27;45705;-64
2024/03/20 01:21:39;;;;;;;;;22.33;22.00;;;;;;;;5089803;27;46164;-64
2024/03/20 01:24:05;;;;;;;;;26.67;24.67;;;;;;;;5081780;27;45294;-63
2024/03/20 01:26:30;;;;;;;;;24.00;21.67;;;;;;;;5091125;27;45349;-63
2024/03/20 01:28:55;;;;;;;;;19.67;19.67;;;;;;;;5093114;27;45288;-64
2024/03/20 01:31:20;;;;;;;;;28.67;22.00;;;;;;;;5090102;27;45464;-64
2024/03/20 01:33:45;;;;;;;;;26.67;23.00;;;;;;;;5095977;27;45381;-64
2024/03/20 01:36:11;;;;;;;;;30.00;27.67;;;;;;;;5088248;27;45353;-64
2024/03/20 01:38:36;;;;;;;;;30.33;25.33;;;;;;;;5082312;27;45286;-64
2024/03/20 01:41:01;;;;;;;;;23.33;22.67;;;;;;;;5097008;27;45406;-64
2024/03/20 01:43:26;;;;;;;;;31.33;24.00;;;;;;;;5088013;27;45343;-64
2024/03/20 01:45:52;;;;;;;;;25.33;23.67;;;;;;;;5096622;27;45276;-64
2024/03/20 01:48:17;;;;;;;;;30.00;25.33;;;;;;;;5071227;27;45527;-64
2024/03/20 01:50:43;;;;;;;;;24.33;22.00;;;;;;;;5087644;27;45319;-64
2024/03/20 01:53:09;;;;;;;;;27.33;24.00;;;;;;;;5083336;27;45417;-64
2024/03/20 01:55:35;;;;;;;;;24.33;22.33;;;;;;;;5081023;27;45346;-64
2024/03/20 01:58:00;;;;;;;;;24.00;22.67;;;;;;;;5081213;27;45531;-63
2024/03/20 02:00:27;;;;;;;;;24.33;21.67;;;;;;;;5081155;27;45397;-64
2024/03/20 02:02:54;;;;;;;;;24.00;19.00;;;;;;;;5080860;27;45402;-64
2024/03/20 02:05:20;;;;;;;;;23.67;22.33;;;;;;;;5080295;27;45660;-64
2024/03/20 02:07:46;;;;;;;;;24.33;23.67;;;;;;;;5080749;27;45368;-64
2024/03/20 02:10:11;;;;;;;;;25.67;23.67;;;;;;;;5080564;27;45372;-64
2024/03/20 02:12:37;;;;;;;;;24.67;24.00;;;;;;;;5092325;27;45474;-63
2024/03/20 02:15:08;;;;;;;;;27.67;23.33;;;;;;;;5080161;28;45322;-64
2024/03/20 02:17:33;;;;;;;;;29.00;24.00;;;;;;;;5077408;27;45543;-64
2024/03/20 02:19:59;;;;;;;;;24.00;22.67;;;;;;;;5098102;27;45424;-64
2024/03/20 02:22:24;;;;;;;;;25.00;19.67;;;;;;;;5092088;27;45609;-64
2024/03/20 02:24:49;;;;;;;;;21.67;20.33;;;;;;;;5088134;27;45270;-65
2024/03/20 02:27:14;;;;;;;;;21.00;21.00;;;;;;;;5090907;27;45480;-64
2024/03/20 02:29:39;;;;;;;;;22.00;20.00;;;;;;;;5080343;27;46432;-63
2024/03/20 02:32:05;;;;;;;;;22.00;22.00;;;;;;;;5085698;27;45344;-64
2024/03/20 02:34:30;;;;;;;;;25.00;23.00;;;;;;;;5093312;27;45450;-64
2024/03/20 02:36:55;;;;;;;;;19.33;18.33;;;;;;;;5079703;27;45521;-64
2024/03/20 02:39:21;;;;;;;;;21.00;20.00;;;;;;;;5095144;27;46243;-64
2024/03/20 02:41:46;;;;;;;;;28.00;24.00;;;;;;;;5091572;27;45285;-64
2024/03/20 02:44:12;;;;;;;;;18.67;18.67;;;;;;;;5093440;27;45417;-64
2024/03/20 02:46:38;;;;;;;;;21.33;19.33;;;;;;;;5088771;27;45768;-63
2024/03/20 02:49:03;;;;;;;;;25.00;23.33;;;;;;;;5079774;27;46093;-64
2024/03/20 02:51:28;;;;;;;;;26.33;21.33;;;;;;;;5079752;27;45274;-63
2024/03/20 02:53:53;;;;;;;;;27.33;22.33;;;;;;;;5080433;27;45269;-63
2024/03/20 02:56:19;;;;;;;;;24.33;22.67;;;;;;;;5078928;27;45454;-64
2024/03/20 02:58:44;;;;;;;;;27.33;23.33;;;;;;;;5079731;27;45420;-63
2024/03/20 03:01:09;;;;;;;;;31.00;27.00;;;;;;;;5079871;27;45316;-63
2024/03/20 03:03:34;;;;;;;;;22.33;21.00;;;;;;;;5086845;27;45310;-63
2024/03/20 03:05:59;;;;;;;;;24.00;20.33;;;;;;;;5080232;27;46469;-63
2024/03/20 03:08:25;;;;;;;;;30.33;24.67;;;;;;;;5079596;27;46286;-64
2024/03/20 03:10:50;;;;;;;;;27.67;19.33;;;;;;;;5080459;27;45638;-63
2024/03/20 03:13:16;;;;;;;;;28.00;20.33;;;;;;;;5085217;27;45683;-64
2024/03/20 03:15:41;;;;;;;;;22.00;19.33;;;;;;;;5080461;27;45696;-64
2024/03/20 03:18:06;;;;;;;;;18.67;18.67;;;;;;;;5077345;27;45359;-64
2024/03/20 03:20:31;;;;;;;;;27.33;23.67;;;;;;;;5079501;27;45548;-63
2024/03/20 03:22:56;;;;;;;;;23.33;21.33;;;;;;;;5094173;27;45395;-63
2024/03/20 03:25:22;;;;;;;;;25.00;22.00;;;;;;;;5085309;27;45456;-63
2024/03/20 03:27:48;;;;;;;;;23.00;21.67;;;;;;;;5089987;27;47518;-63
2024/03/20 03:30:13;;;;;;;;;23.67;23.00;;;;;;;;5076299;27;45395;-63
2024/03/20 03:32:39;;;;;;;;;24.33;18.33;;;;;;;;5079556;27;45340;-63
2024/03/20 03:35:05;;;;;;;;;24.00;21.67;;;;;;;;5078182;27;45491;-63
2024/03/20 03:37:30;;;;;;;;;23.33;23.33;;;;;;;;5091278;27;46362;-63
2024/03/20 03:39:55;;;;;;;;;27.67;23.67;;;;;;;;5086787;27;45680;-63
2024/03/20 03:42:20;;;;;;;;;24.00;19.00;;;;;;;;5085869;27;45511;-64
2024/03/20 03:44:46;;;;;;;;;32.67;28.00;;;;;;;;5079289;27;45437;-64
2024/03/20 03:47:11;;;;;;;;;26.33;22.33;;;;;;;;5071812;27;45553;-64
2024/03/20 03:49:36;;;;;;;;;22.00;21.00;;;;;;;;5074872;27;45485;-63
2024/03/20 03:52:03;;;;;;;;;20.67;18.00;;;;;;;;5086320;27;45275;-64
2024/03/20 03:54:28;;;;;;;;;21.67;20.67;;;;;;;;5078510;27;45508;-64
2024/03/20 03:56:54;;;;;;;;;22.67;21.67;;;;;;;;5079050;27;46258;-63
2024/03/20 03:59:19;;;;;;;;;23.33;22.00;;;;;;;;5076792;27;45254;-64
2024/03/20 04:01:45;;;;;;;;;23.33;21.33;;;;;;;;5079004;27;45335;-63
2024/03/20 04:04:10;;;;;;;;;23.00;21.00;;;;;;;;5077974;27;45556;-63
2024/03/20 04:06:35;;;;;;;;;25.33;23.67;;;;;;;;5079152;27;45405;-63
2024/03/20 04:09:01;;;;;;;;;20.67;20.00;;;;;;;;5080509;27;45384;-63
2024/03/20 04:11:26;;;;;;;;;22.33;20.33;;;;;;;;5078841;27;45463;-63
2024/03/20 04:13:51;;;;;;;;;23.33;22.00;;;;;;;;5075577;28;45322;-64
2024/03/20 04:16:16;;;;;;;;;24.67;19.67;;;;;;;;5077534;27;45523;-63
2024/03/20 04:18:42;;;;;;;;;21.33;19.00;;;;;;;;5086286;27;45408;-64
2024/03/20 04:21:07;;;;;;;;;23.67;23.67;;;;;;;;5091645;27;45388;-63
2024/03/20 04:23:32;;;;;;;;;26.33;21.00;;;;;;;;5090364;27;45286;-63
2024/03/20 04:25:57;;;;;;;;;18.00;12.33;;;;;;;;5085314;27;45655;-63
2024/03/20 04:28:22;;;;;;;;;23.33;21.33;;;;;;;;5078141;27;45270;-63
2024/03/20 04:30:48;;;;;;;;;21.33;18.33;;;;;;;;5095256;27;45242;-63
2024/03/20 04:33:13;;;;;;;;;24.00;20.33;;;;;;;;5089896;27;45322;-63
2024/03/20 04:35:38;;;;;;;;;23.00;21.00;;;;;;;;5094571;27;45342;-63
2024/03/20 04:38:04;;;;;;;;;27.33;22.33;;;;;;;;5081354;27;45666;-63
2024/03/20 04:40:29;;;;;;;;;22.67;20.00;;;;;;;;5087253;27;45417;-63
2024/03/20 04:42:54;;;;;;;;;23.00;21.00;;;;;;;;5091885;27;45313;-63
2024/03/20 04:45:20;;;;;;;;;28.67;20.67;;;;;;;;5086717;27;45508;-63
2024/03/20 04:47:45;;;;;;;;;24.67;21.33;;;;;;;;5078456;27;45461;-63
2024/03/20 04:50:11;;;;;;;;;19.33;19.33;;;;;;;;5081473;27;45302;-63
2024/03/20 04:52:37;;;;;;;;;28.33;23.00;;;;;;;;5082171;27;45414;-63
2024/03/20 04:55:03;;;;;;;;;31.00;24.00;;;;;;;;5085265;27;46426;-63
2024/03/20 04:57:29;;;;;;;;;26.00;20.00;;;;;;;;5086855;27;45226;-63
2024/03/20 04:59:54;;;;;;;;;19.33;19.33;;;;;;;;5087211;27;45263;-64
2024/03/20 05:02:19;;;;;;;;;22.33;22.33;;;;;;;;5083822;27;45657;-63
2024/03/20 05:04:44;;;;;;;;;30.33;24.33;;;;;;;;5090096;27;45497;-63
2024/03/20 05:07:09;;;;;;;;;27.00;25.67;;;;;;;;5098881;27;45333;-64
2024/03/20 05:09:34;;;;;;;;;25.67;20.67;;;;;;;;5084623;27;45300;-63
2024/03/20 05:12:00;;;;;;;;;34.67;26.67;;;;;;;;5083998;27;45584;-62
2024/03/20 05:14:25;;;;;;;;;25.33;19.67;;;;;;;;5092698;27;46288;-62
2024/03/20 05:16:51;;;;;;;;;27.67;27.00;;;;;;;;5076696;27;45372;-62
2024/03/20 05:19:17;;;;;;;;;27.33;20.67;;;;;;;;5092947;27;45333;-62
2024/03/20 05:21:42;;;;;;;;;29.33;25.00;;;;;;;;5097860;27;45368;-62
2024/03/20 05:24:07;;;;;;;;;29.67;24.00;;;;;;;;5096161;27;46715;-62
2024/03/20 05:26:32;;;;;;;;;28.33;24.33;;;;;;;;5100306;27;45415;-62
2024/03/20 05:28:57;;;;;;;;;27.00;24.00;;;;;;;;5097946;27;45413;-62
2024/03/20 05:31:30;;;;;;;;;36.33;26.67;;;;;;;;5087993;27;45357;-62
2024/03/20 05:33:55;;;;;;;;;29.00;27.33;;;;;;;;5078972;27;46451;-62
2024/03/20 05:36:20;;;;;;;;;24.67;21.67;;;;;;;;5079811;27;45263;-62
2024/03/20 05:38:45;;;;;;;;;26.33;25.00;;;;;;;;5081613;27;45526;-62
2024/03/20 05:41:11;;;;;;;;;20.33;16.33;;;;;;;;5081099;27;45241;-62
2024/03/20 05:43:36;;;;;;;;;18.33;15.67;;;;;;;;5081921;27;46473;-62
2024/03/20 05:46:03;;;;;;;;;28.33;23.33;;;;;;;;5081243;27;45295;-62
2024/03/20 05:48:28;;;;;;;;;26.67;23.67;;;;;;;;5077902;27;45364;-62
2024/03/20 05:50:54;;;;;;;;;25.67;22.33;;;;;;;;5080844;27;45473;-62
2024/03/20 05:53:19;;;;;;;;;30.00;25.00;;;;;;;;5077864;27;46591;-62
2024/03/20 05:55:45;;;;;;;;;23.00;22.00;;;;;;;;5080891;27;45342;-62
2024/03/20 05:58:10;;;;;;;;;24.00;18.33;;;;;;;;5081201;27;45492;-62
2024/03/20 06:00:35;;;;;;;;;22.00;20.67;;;;;;;;5075606;27;45350;-62
2024/03/20 06:03:00;;;;;;;;;25.00;24.33;;;;;;;;5080490;27;45606;-62
2024/03/20 06:05:26;;;;;;;;;27.67;24.33;;;;;;;;5077478;27;45552;-61
2024/03/20 06:07:51;;;;;;;;;28.33;23.33;;;;;;;;5083189;27;45496;-61
2024/03/20 06:10:16;;;;;;;;;26.33;22.00;;;;;;;;5082181;27;45429;-61
2024/03/20 06:12:42;;;;;;;;;26.00;25.00;;;;;;;;5077672;27;46677;-61
2024/03/20 06:15:10;;;;;;;;;25.33;22.00;;;;;;;;5083218;27;45212;-62
2024/03/20 06:17:37;;;;;;;;;29.33;26.00;;;;;;;;5071145;27;45326;-61
2024/03/20 06:20:05;;;;;;;;;28.00;26.33;;;;;;;;5083706;27;45430;-61
2024/03/20 06:22:30;;;;;;;;;30.00;28.67;;;;;;;;5086386;27;47107;-61
2024/03/20 06:24:56;;;;;;;;;26.00;24.33;;;;;;;;5094163;27;45267;-61
2024/03/20 06:27:21;;;;;;;;;33.33;24.67;;;;;;;;5081015;27;45429;-61
2024/03/20 06:29:50;;;;;;;;;28.00;25.33;;;;;;;;5083951;27;45463;-62
2024/03/20 06:32:16;;;;;;;;;27.67;25.67;;;;;;;;5075833;27;45461;-61
2024/03/20 06:34:41;;;;;;;;;27.67;26.33;;;;;;;;5079683;27;45249;-61
2024/03/20 06:37:10;;;;;;;;;34.67;28.00;;;;;;;;5078846;27;45280;-61
2024/03/20 06:39:37;;;;;;;;;28.67;25.33;;;;;;;;5080212;27;45485;-61
2024/03/20 06:42:03;;;;;;;;;32.67;29.67;;;;;;;;5065614;27;47039;-61
2024/03/20 06:44:29;;;;;;;;;31.67;29.67;;;;;;;;5075855;27;45412;-62
2024/03/20 06:46:54;;;;;;;;;35.67;31.00;;;;;;;;5075549;27;45318;-61
2024/03/20 06:49:25;;;;;;;;;34.67;30.00;;;;;;;;5069386;27;45180;-62
2024/03/20 06:51:51;;;;;;;;;34.33;30.00;;;;;;;;5075410;27;46270;-60
2024/03/20 06:54:16;;;;;;;;;31.33;28.67;;;;;;;;5075690;27;45446;-60
2024/03/20 06:56:48;;;;;;;;;35.00;28.67;;;;;;;;5064266;27;45236;-61
2024/03/20 06:59:13;;;;;;;;;31.67;31.33;;;;;;;;5073636;27;45484;-61
2024/03/20 07:01:38;;;;;;;;;31.00;30.33;;;;;;;;5073875;27;47300;-61
2024/03/20 07:04:03;;;;;;;;;31.33;29.67;;;;;;;;5066972;27;45492;-61
2024/03/20 07:06:28;;;;;;;;;38.67;32.33;;;;;;;;5080508;27;45472;-61
2024/03/20 07:08:54;;;;;;;;;34.00;30.00;;;;;;;;5077539;27;45612;-61
2024/03/20 07:11:19;;;;;;;;;35.67;32.33;;;;;;;;5068635;27;47395;-61
2024/03/20 07:13:45;;;;;;;;;33.67;29.67;;;;;;;;5077586;27;45512;-61
2024/03/20 07:16:10;;;;;;;;;37.67;31.33;;;;;;;;5079689;27;45472;-61
2024/03/20 07:18:36;;;;;;;;;31.00;29.33;;;;;;;;5074953;27;45339;-60
2024/03/20 07:21:01;;;;;;;;;34.33;30.33;;;;;;;;5064530;27;45590;-60
2024/03/20 07:23:26;;;;;;;;;37.00;30.00;;;;;;;;5073003;27;45597;-60
2024/03/20 07:25:52;;;;;;;;;34.67;31.67;;;;;;;;5075389;27;46159;-60
2024/03/20 07:28:18;;;;;;;;;32.00;30.00;;;;;;;;5072303;27;45516;-60
2024/03/20 07:30:43;;;;;;;;;29.67;29.33;;;;;;;;5066685;27;47123;-60
2024/03/20 07:33:09;;;;;;;;;28.33;26.67;;;;;;;;5080956;27;45571;-60
2024/03/20 07:35:44;;;;;;;;;37.67;30.00;;;;;;;;5078794;27;45264;-59
2024/03/20 07:38:10;;;;;;;;;31.33;28.67;;;;;;;;5071014;27;45560;-61
2024/03/20 07:40:35;;;;;;;;;31.33;30.33;;;;;;;;5069429;27;45666;-61
2024/03/20 07:43:00;;;;;;;;;32.33;30.00;;;;;;;;5076115;27;45298;-60
2024/03/20 07:45:27;;;;;;;;;42.67;31.67;;;;;;;;5073706;27;45311;-60
2024/03/20 07:47:52;;;;;;;;;32.00;31.00;;;;;;;;5074251;27;45548;-61
2024/03/20 07:50:17;;;;;;;;;32.00;28.67;;;;;;;;5076762;27;45934;-61
2024/03/20 07:52:42;;;;;;;;;34.00;29.33;;;;;;;;5084299;27;45654;-61
2024/03/20 07:55:08;;;;;;;;;31.67;30.33;;;;;;;;5075159;27;45456;-62
2024/03/20 07:57:34;;;;;;;;;30.00;27.33;;;;;;;;5074402;27;45649;-62
2024/03/20 07:59:59;;;;;;;;;34.33;30.00;;;;;;;;5072908;27;46279;-61
2024/03/20 08:02:25;;;;;;;;;32.00;30.67;;;;;;;;5081675;27;46489;-62
2024/03/20 08:04:50;;;;;;;;;35.00;30.33;;;;;;;;5077299;27;45281;-61
2024/03/20 08:07:15;;;;;;;;;33.33;31.00;;;;;;;;5075475;27;45385;-62
2024/03/20 08:09:40;;;;;;;;;36.67;31.67;;;;;;;;5081406;27;45462;-62
2024/03/20 08:12:06;;;;;;;;;33.33;31.33;;;;;;;;5070623;27;45433;-62
2024/03/20 08:14:31;;;;;;;;;37.00;30.67;;;;;;;;5071185;27;45651;-60
2024/03/20 08:16:56;;;;;;;;;42.00;32.67;;;;;;;;5081545;27;45539;-61
2024/03/20 08:19:21;;;;;;;;;29.00;28.67;;;;;;;;5075806;27;47569;-60
2024/03/20 08:21:46;;;;;;;;;40.00;33.00;;;;;;;;5076284;27;45480;-62
2024/03/20 08:24:12;;;;;;;;;41.00;34.33;;;;;;;;5076967;27;45481;-62
2024/03/20 08:26:39;;;;;;;;;38.00;31.67;;;;;;;;5076976;27;45343;-62
2024/03/20 08:29:04;;;;;;;;;42.67;32.67;;;;;;;;5075992;27;45437;-61
2024/03/20 08:31:29;;;;;;;;;41.00;35.00;;;;;;;;5078968;27;45860;-62
2024/03/20 08:33:54;;;;;;;;;34.33;31.67;;;;;;;;5076931;27;45326;-62
2024/03/20 08:36:20;;;;;;;;;38.67;34.00;;;;;;;;5079110;27;45536;-62
2024/03/20 08:38:46;;;;;;;;;39.33;34.67;;;;;;;;5077236;27;46354;-62
2024/03/20 08:41:11;;;;;;;;;47.67;38.33;;;;;;;;5080185;27;45754;-62
2024/03/20 08:43:37;;;;;;;;;41.67;32.00;;;;;;;;5080417;27;45421;-62
2024/03/20 08:46:02;;;;;;;;;35.00;32.67;;;;;;;;5078294;27;45489;-57
2024/03/20 08:48:30;;;;;;;;;35.00;33.00;;;;;;;;5079357;27;45526;-59
2024/03/20 08:50:55;;;;;;;;;30.67;30.67;;;;;;;;5080272;27;45425;-58
2024/03/20 08:53:20;;;;;;;;;43.67;35.00;;;;;;;;5080964;27;45468;-58
2024/03/20 08:55:46;;;;;;;;;38.67;35.33;;;;;;;;5079185;27;45507;-58
2024/03/20 08:58:11;;;;;;;;;35.33;33.33;;;;;;;;5078916;27;46196;-56
2024/03/20 09:00:36;;;;;;;;;35.00;33.00;;;;;;;;5080026;27;45480;-57
2024/03/20 09:03:04;;;;;;;;;35.33;31.67;;;;;;;;5081243;27;45416;-58
2024/03/20 09:05:30;;;;;;;;;38.67;34.00;;;;;;;;5078986;27;45376;-58
2024/03/20 09:07:55;;;;;;;;;40.00;33.00;;;;;;;;5080930;27;45278;-58
2024/03/20 09:10:20;;;;;;;;;40.33;34.00;;;;;;;;5080148;27;45456;-57
2024/03/20 09:12:46;;;;;;;;;37.33;31.67;;;;;;;;5081029;27;45405;-57
2024/03/20 09:15:12;;;;;;;;;35.33;32.33;;;;;;;;5079232;27;45629;-57
2024/03/20 09:17:37;;;;;;;;;40.00;34.00;;;;;;;;5077057;27;46962;-57
2024/03/20 09:20:04;;;;;;;;;34.67;32.00;;;;;;;;5078065;27;45472;-57
2024/03/20 09:22:30;;;;;;;;;37.00;32.67;;;;;;;;5084116;27;45525;-57
2024/03/20 09:24:55;;;;;;;;;37.00;32.67;;;;;;;;5084920;27;45413;-58
2024/03/20 09:27:20;;;;;;;;;41.33;33.33;;;;;;;;5079990;27;45584;-57
2024/03/20 09:29:45;;;;;;;;;29.67;29.67;;;;;;;;5083751;27;45476;-57
2024/03/20 09:32:12;;;;;;;;;33.00;31.33;;;;;;;;5079902;27;45475;-57
2024/03/20 09:34:37;;;;;;;;;33.33;30.67;;;;;;;;5080401;27;45531;-57
2024/03/20 09:37:02;;;;;;;;;37.33;31.33;;;;;;;;5088093;27;46426;-57
2024/03/20 09:39:28;;;;;;;;;16.00;5.33;;;;;;;;5081354;27;45383;-58
2024/03/20 09:41:53;;;;;;;;;33.33;30.67;;;;;;;;5082611;27;45585;-57
2024/03/20 09:44:18;;;;;;;;;39.67;31.00;;;;;;;;5082679;27;45557;-58
2024/03/20 09:46:44;;;;;;;;;39.33;32.33;;;;;;;;5083295;27;46190;-57
2024/03/20 09:49:10;;;;;;;;;44.33;35.00;;;;;;;;5088376;27;45462;-57
2024/03/20 09:51:35;;;;;;;;;31.00;29.67;;;;;;;;5084230;27;45428;-58
2024/03/20 09:54:01;;;;;;;;;39.33;32.67;;;;;;;;5082176;27;45255;-58
2024/03/20 09:56:26;;;;;;;;;37.00;32.67;;;;;;;;5080553;27;46354;-57
2024/03/20 09:58:52;;;;;;;;;36.67;33.00;;;;;;;;5081075;27;45554;-57
2024/03/20 10:01:22;;;;;;;;;37.67;34.00;;;;;;;;5082052;27;45540;-57
2024/03/20 10:03:53;;;;;;;;;35.67;32.33;;;;;;;;5081494;27;45287;-58
2024/03/20 10:06:20;;;;;;;;;33.00;30.33;;;;;;;;5077949;27;45564;-58
2024/03/20 10:08:45;;;;;;;;;40.33;33.33;;;;;;;;5078124;27;45416;-58
2024/03/20 10:11:10;;;;;;;;;30.67;29.33;;;;;;;;5077009;27;45381;-58
2024/03/20 10:13:36;;;;;;;;;31.67;30.00;;;;;;;;5078258;27;45414;-58
2024/03/20 10:16:04;;;;;;;;;31.33;29.67;;;;;;;;5079081;27;45555;-57
2024/03/20 10:18:29;;;;;;;;;30.00;28.67;;;;;;;;5077634;27;45555;-58
2024/03/20 10:20:55;;;;;;;;;35.00;28.67;;;;;;;;5077870;27;45511;-58
2024/03/20 10:23:20;;;;;;;;;31.67;29.67;;;;;;;;5079629;27;45666;-58
2024/03/20 10:25:47;;;;;;;;;30.00;27.67;;;;;;;;5078047;27;46910;-58
2024/03/20 10:28:14;;;;;;;;;33.00;31.33;;;;;;;;5079252;27;45498;-58
2024/03/20 10:30:40;;;;;;;;;34.00;28.67;;;;;;;;5076702;27;45451;-58
2024/03/20 10:33:07;;;;;;;;;27.00;26.33;;;;;;;;5065518;27;45408;-58
2024/03/20 10:35:34;;;;;;;;;29.00;28.33;;;;;;;;5076194;27;46567;-58
2024/03/20 10:38:00;;;;;;;;;24.67;24.67;;;;;;;;5076487;27;45408;-58
2024/03/20 10:40:27;;;;;;;;;26.67;25.33;;;;;;;;5077808;27;45616;-58
2024/03/20 10:42:53;;;;;;;;;25.00;23.33;;;;;;;;5075531;27;45510;-58
2024/03/20 10:45:18;;;;;;;;;28.00;22.00;;;;;;;;5079084;27;46750;-59
2024/03/20 10:47:47;;;;;;;;;26.33;25.67;;;;;;;;5071984;27;45403;-59
2024/03/20 10:50:13;;;;;;;;;25.00;23.67;;;;;;;;5065842;28;45436;-59
2024/03/20 10:52:39;;;;;;;;;24.33;21.67;;;;;;;;5075359;27;45373;-59
2024/03/20 10:55:06;;;;;;;;;23.33;21.67;;;;;;;;5078901;27;47162;-59
2024/03/20 10:57:31;;;;;;;;;17.50;17.50;;;;;;;;5076592;27;45348;-59
2024/03/20 10:59:57;;;;;;;;;23.33;19.67;;;;;;;;5078933;27;45340;-59
2024/03/20 11:02:23;;;;;;;;;18.25;18.25;;;;;;;;5074965;27;45468;-59
2024/03/20 11:04:49;;;;;;;;;19.25;14.25;;;;;;;;5072376;27;46025;-59
2024/03/20 11:07:29;;;;;;;;;15.67;14.00;;;;;;;;5083729;27;45410;-57
2024/03/20 11:09:57;;;;;;;;;17.33;16.33;;;;;;;;5079181;27;45173;-58
2024/03/20 11:12:26;;;;;;;;;19.00;16.67;;;;;;;;5079606;27;45487;-60
2024/03/20 11:14:51;;;;;;;;;20.67;16.00;;;;;;;;5091400;27;45468;-59
2024/03/20 11:17:16;;;;;;;;;18.00;18.00;;;;;;;;5082738;27;45472;-60
2024/03/20 11:19:43;;;;;;;;;16.50;15.75;;;;;;;;5080759;27;45408;-59
2024/03/20 11:22:22;;;;;;;;;16.25;14.50;;;;;;;;5087799;27;45453;-58
2024/03/20 11:24:48;;;;;;;;;18.00;16.67;;;;;;;;5093984;27;45477;-59
2024/03/20 11:27:13;;;;;;;;;17.67;16.00;;;;;;;;5081415;27;45362;-58
2024/03/20 11:29:38;;;;;;;;;20.33;19.00;;;;;;;;5085817;27;45357;-59
2024/03/20 11:32:03;;;;;;;;;21.33;20.00;;;;;;;;5085451;27;45428;-59
2024/03/20 11:34:28;;;;;;;;;23.00;18.33;;;;;;;;5077392;27;47467;-61
2024/03/20 11:36:54;;;;;;;;;24.00;21.67;;;;;;;;5086037;27;45716;-58
2024/03/20 11:39:19;;;;;;;;;18.67;16.67;;;;;;;;5089075;27;45300;-59
2024/03/20 11:41:45;;;;;;;;;18.67;18.67;;;;;;;;5082234;27;45476;-60
2024/03/20 11:44:10;;;;;;;;;18.75;17.00;;;;;;;;5082463;27;46081;-59
2024/03/20 11:46:35;;;;;;;;;20.67;18.00;;;;;;;;5086150;27;45480;-60
2024/03/20 11:49:01;;;;;;;;;15.75;15.75;;;;;;;;5078890;27;45334;-60
2024/03/20 11:51:27;;;;;;;;;15.00;15.00;;;;;;;;5086428;27;45392;-60
2024/03/20 11:53:52;;;;;;;;;17.67;17.33;;;;;;;;5084585;27;46180;-61
2024/03/20 11:56:18;;;;;;;;;13.25;12.25;;;;;;;;5089935;27;45297;-60
2024/03/20 11:58:47;;;;;;;;;13.50;11.50;;;;;;;;5092681;27;45325;-59
2024/03/20 12:01:13;;;;;;;;;10.75;10.75;;;;;;;;5079603;27;45321;-59
2024/03/20 12:03:38;;;;;;;;;9.75;9.25;;;;;;;;5081095;27;45453;-59
2024/03/20 12:06:12;;;;;;;;;12.50;11.50;;;;;;;;5080247;27;45543;-59
2024/03/20 12:08:39;;;;;;;;;13.50;12.50;;;;;;;;5081444;27;45429;-59
2024/03/20 12:11:24;;;;;;;;;14.75;12.25;;;;;;;;5079390;27;45403;-60
2024/03/20 12:13:52;;;;;;;;;10.75;10.75;;;;;;;;5073545;27;45702;-60
2024/03/20 12:16:17;;;;;;;;;14.25;11.50;;;;;;;;5083173;27;45493;-60
2024/03/20 12:18:42;;;;;;;;;15.50;14.00;;;;;;;;5075480;27;45495;-59
2024/03/20 12:21:12;;;;;;;;;6.50;5.50;;;;;;;;5078640;27;45544;-60
2024/03/20 12:23:37;;;;;;;;;4.00;4.00;;;;;;;;5079433;27;48164;-60
2024/03/20 12:26:05;;;;;;;;;3.50;3.50;;;;;;;;5073911;27;45512;-59
2024/03/20 12:28:31;;;;;;;;;2.25;2.25;;;;;;;;5075853;27;45433;-60
2024/03/20 12:30:56;;;;;;;;;3.25;3.25;;;;;;;;5078197;27;45570;-59
2024/03/20 12:33:21;;;;;;;;;2.25;2.25;;;;;;;;5075942;27;46548;-60
2024/03/20 12:35:47;;;;;;;;;3.00;3.00;;;;;;;;5077310;27;45518;-60
2024/03/20 12:38:13;;;;;;;;;4.25;3.75;;;;;;;;5078675;27;45466;-59
2024/03/20 12:40:38;;;;;;;;;2.25;1.75;;;;;;;;5081748;27;45286;-59
2024/03/20 12:43:04;;;;;;;;;2.75;2.75;;;;;;;;5072473;27;46466;-59
2024/03/20 12:45:29;;;;;;;;;4.25;3.00;;;;;;;;5077466;27;46384;-60
2024/03/20 12:47:54;;;;;;;;;1.50;1.50;;;;;;;;5072118;27;45417;-60
2024/03/20 12:50:20;;;;;;;;;2.25;1.25;;;;;;;;5078318;27;45430;-60
2024/03/20 12:52:45;;;;;;;;;3.25;3.25;;;;;;;;5077434;27;45578;-62
2024/03/20 12:55:11;;;;;;;;;3.00;3.00;;;;;;;;5075476;27;45501;-61
2024/03/20 12:57:36;;;;;;;;;4.50;2.25;;;;;;;;5077016;27;45354;-57
2024/03/20 13:00:03;;;;;;;;;3.00;3.00;;;;;;;;5082422;27;45842;-57
2024/03/20 13:02:31;;;;;;;;;2.00;2.00;;;;;;;;5084127;27;47155;-53
2024/03/20 13:04:56;;;;;;;;;4.00;2.00;;;;;;;;5082713;27;45413;-63
2024/03/20 13:07:21;;;;;;;;;4.50;3.50;;;;;;;;5077764;27;45421;-59
2024/03/20 13:09:50;;;;;;;;;2.00;2.00;;;;;;;;5085598;27;45653;-65
2024/03/20 13:12:15;;;;;;;;;2.00;2.00;;;;;;;;5076122;27;47779;-59
2024/03/20 13:14:41;;;;;;;;;5.50;4.25;;;;;;;;5074150;27;45822;-58
2024/03/20 13:17:13;;;;;;;;;6.00;4.00;;;;;;;;5083747;27;45315;-59
2024/03/20 13:19:38;;;;;;;;;4.75;2.75;;;;;;;;5081735;27;45525;-59
2024/03/20 13:22:12;;;;;;;;;4.00;3.00;;;;;;;;5073143;27;46479;-58
2024/03/20 13:24:37;;;;;;;;;5.25;4.00;;;;;;;;5083687;27;45502;-58
2024/03/20 13:27:07;;;;;;;;;3.50;3.50;;;;;;;;5081280;27;45392;-58
2024/03/20 13:29:33;;;;;;;;;3.25;1.75;;;;;;;;5084652;27;45375;-57
2024/03/20 13:32:00;;;;;;;;;4.50;4.50;;;;;;;;5085988;27;45453;-58
2024/03/20 13:34:27;;;;;;;;;2.75;2.75;;;;;;;;5081955;27;45460;-58
2024/03/20 13:36:55;;;;;;;;;5.00;4.75;;;;;;;;5085517;27;45509;-58
2024/03/20 13:39:33;;;;;;;;;4.75;4.75;;;;;;;;5079086;27;45232;-58
2024/03/20 13:42:08;;;;;;;;;4.75;3.00;;;;;;;;5081429;27;47262;-58
2024/03/20 13:44:34;;;;;;;;;4.25;4.25;;;;;;;;5083703;27;45461;-58
2024/03/20 13:46:59;;;;;;;;;4.00;4.00;;;;;;;;5081158;27;45731;-57
2024/03/20 13:49:24;;;;;;;;;5.00;4.00;;;;;;;;5080109;27;45425;-56
2024/03/20 13:51:50;;;;;;;;;3.50;3.50;;;;;;;;5084529;27;46655;-56
2024/03/20 13:54:15;;;;;;;;;5.50;4.50;;;;;;;;5083235;27;45716;-56
2024/03/20 13:56:40;;;;;;;;;5.25;4.00;;;;;;;;5083727;27;46761;-56
2024/03/20 13:59:05;;;;;;;;;6.00;4.50;;;;;;;;5079930;27;45484;-56
2024/03/20 14:01:33;;;;;;;;;5.75;4.75;;;;;;;;5084169;27;46293;-55
2024/03/20 14:03:59;;;;;;;;;5.25;4.75;;;;;;;;5079803;27;45350;-56
2024/03/20 14:06:29;;;;;;;;;4.75;4.75;;;;;;;;5075043;27;45636;-56
2024/03/20 14:08:54;;;;;;;;;3.50;3.50;;;;;;;;5081510;27;45383;-56
2024/03/20 14:11:21;;;;;;;;;7.00;5.75;;;;;;;;5079868;27;46441;-56
2024/03/20 14:13:46;;;;;;;;;5.00;5.00;;;;;;;;5078790;27;45918;-56